Time;durP1;ratioP1;P1;durP2;ratioP2;P2;SDS_P1;SDS_P2;PMS_P1;PMS_P2;Temp;Humidity;BMP_temperature;BMP_pressure;BME280_temperature;BME280_humidity;BME280_pressure;Samples;Min_cycle;Max_cycle;Signal;HPM_P1;HPM_P2
2021/07/17 00:01:48;;;;;;;3.72;1.73;;;16.00;99.90;;;16.79;100.00;95371.00;2435021;53;34128;-49
2021/07/17 00:04:34;;;;;;;2.53;1.50;;;16.10;99.90;;;16.61;100.00;95387.00;2174338;56;26688;-51
2021/07/17 00:07:23;;;;;;;4.40;1.50;;;16.00;99.90;;;16.48;100.00;95387.00;2181367;55;26222;-55
2021/07/17 00:10:12;;;;;;;2.72;1.48;;;16.00;99.90;;;16.46;100.00;95379.00;2164021;55;26887;-50
2021/07/17 00:12:58;;;;;;;2.15;1.60;;;16.10;99.90;;;16.70;100.00;95378.00;2204932;56;27345;-50
2021/07/17 00:15:46;;;;;;;2.45;1.45;;;16.10;99.90;;;16.52;100.00;95383.00;2214509;55;26658;-50
2021/07/17 00:18:32;;;;;;;1.60;1.40;;;16.00;99.90;;;16.40;100.00;95384.00;2217063;55;26120;-50
2021/07/17 00:21:19;;;;;;;2.87;1.52;;;16.00;99.90;;;16.43;100.00;95384.00;2438793;55;26688;-50
2021/07/17 00:27:03;;;;;;;7.97;1.85;;;15.90;99.90;;;16.34;100.00;95364.00;2483199;53;33954;-50
2021/07/17 00:29:49;;;;;;;3.17;1.70;;;15.80;99.90;;;16.21;100.00;95384.00;2469480;53;26703;-50
2021/07/17 00:35:34;;;;;;;2.17;1.67;;;15.90;99.90;;;16.45;100.00;95371.00;2352008;56;33750;-50
2021/07/17 00:38:20;;;;;;;2.75;1.60;;;15.80;99.90;;;16.24;100.00;95385.00;2294455;58;26160;-50
2021/07/17 00:44:04;;;;;;;2.47;1.70;;;15.90;99.90;;;16.63;100.00;95356.00;2349939;56;33841;-50
2021/07/17 00:46:51;;;;;;;2.08;1.50;;;15.90;99.90;;;16.39;100.00;95375.00;2119651;57;27010;-49
2021/07/17 00:49:37;;;;;;;2.08;1.70;;;15.90;99.90;;;16.41;100.00;95376.00;2301196;57;26594;-50
2021/07/17 00:52:24;;;;;;;1.65;1.52;;;15.90;99.90;;;16.26;100.00;95370.00;2126198;56;26769;-50
2021/07/17 00:55:14;;;;;;;5.00;1.40;;;15.80;99.90;;;16.21;100.00;95376.00;2339720;56;27124;-49
2021/07/17 00:58:01;;;;;;;3.17;1.60;;;15.80;99.90;;;16.17;100.00;95375.00;2128387;56;26927;-50
2021/07/17 01:00:48;;;;;;;2.12;1.70;;;15.70;99.90;;;16.18;100.00;95368.00;2326249;56;26896;-49
2021/07/17 01:06:31;;;;;;;1.55;1.40;;;15.80;99.90;;;16.36;100.00;95351.00;2371165;55;34667;-49
2021/07/17 01:09:17;;;;;;;2.08;1.40;;;15.80;99.90;;;16.17;100.00;95367.00;2130282;57;26917;-50
2021/07/17 01:12:05;;;;;;;1.52;1.40;;;15.70;99.90;;;16.14;100.00;95370.00;2350001;56;26579;-50
2021/07/17 01:14:52;;;;;;;1.83;1.40;;;15.70;99.90;;;16.15;100.00;95373.00;2148349;56;27002;-51
2021/07/17 01:17:39;;;;;;;3.50;1.45;;;15.70;99.90;;;16.12;100.00;95375.00;2370029;56;27266;-50
2021/07/17 01:20:26;;;;;;;1.70;1.58;;;15.70;99.90;;;16.17;100.00;95369.00;2166583;56;27298;-50
2021/07/17 01:26:11;;;;;;;2.50;1.65;;;15.70;99.90;;;16.28;100.00;95352.00;2395807;55;34168;-50
2021/07/17 01:31:54;;;;;;;1.77;1.60;;;15.70;99.90;;;16.29;100.00;95346.00;2436117;54;33626;-49
2021/07/17 01:34:41;;;;;;;1.98;1.50;;;15.70;99.90;;;16.07;100.00;95363.00;2203376;55;27437;-50
2021/07/17 01:37:27;;;;;;;2.65;1.55;;;15.60;99.90;;;16.10;100.00;95365.00;2212586;55;26771;-50
2021/07/17 01:40:19;;;;;;;1.60;1.50;;;15.60;99.90;;;16.11;100.00;95375.00;2449286;54;26952;-50
2021/07/17 01:46:04;;;;;;;3.08;1.73;;;15.60;99.90;;;16.15;100.00;95348.00;2376244;55;34526;-50
2021/07/17 01:51:51;;;;;;;2.30;1.60;;;15.70;99.90;;;16.26;100.00;95349.00;2417439;55;34401;-50
2021/07/17 01:54:39;;;;;;;2.53;1.50;;;15.60;99.90;;;16.12;100.00;95372.00;2205474;55;26929;-49
2021/07/17 01:57:25;;;;;;;4.60;1.62;;;15.60;99.90;;;16.13;100.00;95371.00;2428127;55;27260;-49
2021/07/17 02:00:16;;;;;;;2.28;1.50;;;15.70;99.90;;;16.22;100.00;95369.00;2212719;55;27176;-50
2021/07/17 02:03:02;;;;;;;1.42;1.33;;;15.60;99.90;;;16.06;100.00;95367.00;2433928;55;26763;-49
2021/07/17 02:05:49;;;;;;;2.67;1.60;;;15.80;99.90;;;16.45;100.00;95369.00;2211606;55;26570;-50
2021/07/17 02:08:37;;;;;;;4.45;1.60;;;15.70;99.90;;;16.14;100.00;95364.00;2212021;55;26874;-50
2021/07/17 02:11:23;;;;;;;2.20;1.65;;;15.60;99.90;;;16.12;100.00;95363.00;2227366;55;27202;-49
2021/07/17 02:14:10;;;;;;;2.65;1.58;;;15.60;99.90;;;16.03;100.00;95367.00;2190913;55;26655;-50
2021/07/17 02:16:56;;;;;;;5.53;1.67;;;15.60;99.90;;;15.96;100.00;95366.00;2423023;55;26793;-51
2021/07/17 02:19:42;;;;;;;6.43;1.65;;;15.60;99.90;;;15.98;100.00;95365.00;2187486;56;26674;-50
2021/07/17 02:22:29;;;;;;;8.50;1.67;;;15.60;99.90;;;16.05;100.00;95368.00;2403509;55;27212;-50
2021/07/17 02:25:15;;;;;;;1.90;1.30;;;15.60;99.90;;;16.07;100.00;95356.00;2186359;55;27280;-49
2021/07/17 02:28:02;;;;;;;2.37;1.60;;;15.60;99.90;;;16.09;100.00;95359.00;2406234;55;26633;-50
2021/07/17 02:30:48;;;;;;;3.70;1.60;;;15.70;99.90;;;16.10;100.00;95357.00;2208129;55;26745;-50
2021/07/17 02:33:34;;;;;;;2.10;1.60;;;15.70;99.90;;;16.15;100.00;95363.00;2216132;55;26726;-51
2021/07/17 02:36:23;;;;;;;1.60;1.50;;;15.70;99.90;;;16.21;100.00;95360.00;2422842;55;26706;-50
2021/07/17 02:39:10;;;;;;;1.95;1.60;;;15.70;99.90;;;16.22;100.00;95353.00;2213312;55;27230;-50
2021/07/17 02:41:56;;;;;;;3.75;1.90;;;15.90;99.90;;;16.54;100.00;95357.00;2440197;55;26641;-50
2021/07/17 02:44:43;;;;;;;1.87;1.60;;;15.80;99.90;;;16.34;100.00;95348.00;2215354;56;27334;-51
2021/07/17 02:47:29;;;;;;;1.60;1.50;;;15.80;99.90;;;16.31;100.00;95354.00;2440255;55;26740;-50
2021/07/17 02:53:14;;;;;;;1.95;1.60;;;15.80;99.90;;;16.28;100.00;95330.00;2351850;56;34198;-50
2021/07/17 02:56:00;;;;;;;2.30;1.70;;;15.70;99.90;;;16.09;100.00;95356.00;2361003;55;26929;-50
2021/07/17 02:58:46;;;;;;;2.33;1.50;;;15.70;99.90;;;16.07;100.00;95352.00;2381808;56;26648;-49
2021/07/17 03:01:33;;;;;;;2.25;1.80;;;15.70;99.90;;;16.08;100.00;95354.00;2374742;56;26775;-50
2021/07/17 03:04:19;;;;;;;2.03;1.60;;;15.70;99.90;;;16.16;100.00;95356.00;2163439;57;26675;-50
2021/07/17 03:07:06;;;;;;;4.05;1.52;;;15.70;99.90;;;16.18;100.00;95350.00;2163214;57;27488;-50
2021/07/17 03:12:50;;;;;;;3.60;1.90;;;15.70;99.90;;;16.32;100.00;95343.00;2447354;54;34123;-49
2021/07/17 03:15:37;;;;;;;3.67;1.70;;;15.80;99.90;;;16.28;100.00;95355.00;2200154;55;27280;-49
2021/07/17 03:18:23;;;;;;;1.95;1.65;;;15.80;99.90;;;16.24;100.00;95359.00;2421778;55;26750;-49
2021/07/17 03:21:09;;;;;;;2.28;1.70;;;15.80;99.90;;;16.22;100.00;95356.00;2422044;55;26794;-49
2021/07/17 03:23:56;;;;;;;1.70;1.60;;;15.80;99.90;;;16.22;100.00;95356.00;2204563;55;26148;-50
2021/07/17 03:26:43;;;;;;;2.25;1.83;;;15.80;99.90;;;16.21;100.00;95357.00;2423744;55;26278;-50
2021/07/17 03:29:29;;;;;;;5.28;1.83;;;15.80;99.90;;;16.23;100.00;95358.00;2201255;55;27720;-53
2021/07/17 03:32:23;;;;;;;2.58;2.00;;;15.80;99.90;;;16.25;100.00;95367.00;2431855;55;26998;-50
2021/07/17 03:35:11;;;;;;;2.35;1.77;;;15.90;99.90;;;16.35;100.00;95366.00;2213708;55;26767;-50
2021/07/17 03:37:57;;;;;;;2.60;2.00;;;15.90;99.90;;;16.47;100.00;95372.00;2211862;55;26060;-51
2021/07/17 03:40:44;;;;;;;3.85;2.00;;;16.00;99.90;;;16.68;100.00;95364.00;2202430;56;26929;-49
2021/07/17 03:43:30;;;;;;;4.65;2.15;;;16.00;99.90;;;16.47;100.00;95361.00;2438275;54;26776;-50
2021/07/17 03:49:14;;;;;;;2.40;2.20;;;15.90;99.90;;;16.53;100.00;95345.00;2432863;54;33852;-49
2021/07/17 03:52:01;;;;;;;2.80;2.50;;;16.00;99.90;;;16.48;100.00;95360.00;2405934;55;26190;-50
2021/07/17 03:54:47;;;;;;;3.97;2.17;;;16.00;99.90;;;16.52;100.00;95356.00;2190352;55;26253;-49
2021/07/17 03:57:33;;;;;;;2.30;2.10;;;16.10;99.90;;;16.63;100.00;95364.00;2409075;55;26658;-50
2021/07/17 04:03:16;;;;;;;2.47;2.22;;;16.00;99.90;;;16.57;100.00;95348.00;2371341;55;34868;-50
2021/07/17 04:09:00;;;;;;;2.42;1.95;;;15.90;99.90;;;16.48;100.00;95356.00;2469060;53;34007;-49
2021/07/17 04:14:43;;;;;;;3.42;2.30;;;15.90;99.90;;;16.47;100.00;95354.00;2345584;56;33511;-50
2021/07/17 04:17:30;;;;;;;2.55;2.35;;;15.90;99.90;;;16.41;100.00;95386.00;2111947;58;27038;-50
2021/07/17 04:20:16;;;;;;;5.25;2.70;;;16.00;99.90;;;16.48;100.00;95397.00;2314337;57;26658;-49
2021/07/17 04:23:03;;;;;;;3.33;2.28;;;16.00;99.90;;;16.57;100.00;95400.00;2112543;57;26767;-50
2021/07/17 04:25:49;;;;;;;2.50;2.30;;;16.00;99.90;;;16.50;100.00;95390.00;2298394;57;26751;-50
2021/07/17 04:28:35;;;;;;;5.43;2.33;;;16.10;99.90;;;16.68;100.00;95388.00;2118303;57;26814;-50
2021/07/17 04:31:22;;;;;;;2.55;2.35;;;16.10;99.90;;;16.60;100.00;95390.00;2137194;57;26689;-50
2021/07/17 04:34:08;;;;;;;3.10;2.42;;;16.10;99.90;;;16.66;100.00;95390.00;2349219;57;26832;-49
2021/07/17 04:36:55;;;;;;;4.93;2.55;;;16.30;99.90;;;16.72;100.00;95386.00;2139844;57;26705;-50
2021/07/17 04:39:41;;;;;;;4.00;3.60;;;16.30;99.90;;;16.90;100.00;95386.00;2352344;56;26831;-49
2021/07/17 04:45:24;;;;;;;6.75;5.35;;;16.40;99.90;;;16.99;100.00;95358.00;2405004;55;33840;-50
2021/07/17 04:48:11;;;;;;;5.65;5.15;;;16.40;99.90;;;16.91;100.00;95390.00;2180121;56;26595;-51
2021/07/17 04:50:57;;;;;;;7.12;6.43;;;16.50;99.90;;;17.16;100.00;95386.00;2393666;55;26692;-49
2021/07/17 04:56:40;;;;;;;7.97;6.47;;;16.60;99.90;;;17.24;100.00;95377.00;2391828;55;33738;-50
2021/07/17 04:59:27;;;;;;;10.20;8.30;;;16.70;99.90;;;17.32;100.00;95389.00;2146215;56;27270;-50
2021/07/17 05:02:13;;;;;;;11.88;10.68;;;16.80;99.90;;;17.44;100.00;95380.00;2395388;56;26121;-50
2021/07/17 05:07:56;;;;;;;11.10;10.00;;;16.80;99.90;;;17.45;100.00;95366.00;2463483;53;33701;-50
2021/07/17 05:10:43;;;;;;;14.25;12.80;;;16.90;99.90;;;17.40;100.00;95385.00;2225866;55;26823;-51
2021/07/17 05:13:30;;;;;;;14.48;12.90;;;16.80;99.90;;;17.32;100.00;95373.00;2465381;54;27377;-50
2021/07/17 05:19:13;;;;;;;15.75;12.27;;;16.90;99.90;;;17.49;100.00;95364.00;2453602;53;33662;-49
2021/07/17 05:21:59;;;;;;;13.35;10.98;;;16.90;99.90;;;17.34;100.00;95378.00;2193096;54;26710;-51
2021/07/17 05:24:46;;;;;;;14.55;11.73;;;16.90;99.90;;;17.27;100.00;95378.00;2216026;54;26681;-50
2021/07/17 05:27:32;;;;;;;13.40;12.00;;;16.90;99.90;;;17.25;100.00;95377.00;2231556;54;27175;-51
2021/07/17 05:30:20;;;;;;;15.88;13.20;;;16.90;99.90;;;17.38;100.00;95372.00;2254120;54;26135;-50
2021/07/17 05:33:06;;;;;;;18.95;14.98;;;17.00;99.90;;;17.58;100.00;95377.00;2248757;55;26681;-50
2021/07/17 05:35:53;;;;;;;18.80;16.77;;;17.10;99.90;;;17.58;100.00;95375.00;2471380;54;26887;-51
2021/07/17 05:38:39;;;;;;;21.20;17.37;;;17.10;99.90;;;17.64;100.00;95365.00;2243536;56;26807;-50
2021/07/17 05:41:26;;;;;;;20.60;17.98;;;17.20;99.90;;;17.62;100.00;95370.00;2472229;54;27502;-50
2021/07/17 05:44:12;;;;;;;24.08;17.95;;;17.20;99.90;;;17.79;100.00;95365.00;2243761;55;27220;-51
2021/07/17 05:49:55;;;;;;;34.47;30.80;;;17.40;99.90;;;18.04;100.00;95352.00;2386095;55;33972;-52
2021/07/17 05:52:41;;;;;;;24.80;21.08;;;17.50;99.90;;;17.95;100.00;95376.00;2156550;56;27364;-50
2021/07/17 05:55:28;;;;;;;24.42;21.25;;;17.60;99.90;;;18.21;100.00;95381.00;2370880;55;26624;-50
2021/07/17 06:01:11;;;;;;;26.17;19.60;;;17.60;99.90;;;18.23;100.00;95354.00;2461547;53;33646;-50
2021/07/17 06:03:57;;;;;;;24.33;19.35;;;17.70;99.90;;;18.21;100.00;95377.00;2181481;55;26895;-50
2021/07/17 06:06:44;;;;;;;24.87;19.37;;;17.70;99.90;;;18.21;100.00;95370.00;2182365;55;26931;-50
2021/07/17 06:09:30;;;;;;;25.35;19.27;;;17.80;99.90;;;18.37;100.00;95375.00;2184847;55;26611;-51
2021/07/17 06:15:15;;;;;;;22.52;19.35;;;18.10;99.90;;;18.80;100.00;95358.00;2389228;55;34871;-50
2021/07/17 06:18:02;;;;;;;24.80;20.05;;;18.20;99.90;;;18.79;100.00;95374.00;2401725;55;27140;-50
2021/07/17 06:20:48;;;;;;;23.45;18.90;;;18.20;99.90;;;18.66;100.00;95376.00;2183857;56;27202;-51
2021/07/17 06:23:34;;;;;;;25.73;19.92;;;18.30;99.90;;;18.90;100.00;95377.00;2400512;55;26650;-51
2021/07/17 06:29:17;;;;;;;23.67;19.12;;;18.30;99.90;;;19.09;100.00;95363.00;2425774;54;34095;-49
2021/07/17 06:32:04;;;;;;;23.90;19.27;;;18.40;99.90;;;18.99;100.00;95380.00;2368275;56;26932;-50
2021/07/17 06:34:50;;;;;;;25.75;21.23;;;18.50;99.90;;;19.14;100.00;95373.00;2173345;56;26710;-51
2021/07/17 06:37:41;;;;;;;29.30;23.23;;;18.40;99.90;;;18.88;100.00;95378.00;2164203;56;27098;-50
2021/07/17 06:40:27;;;;;;;34.75;23.67;;;18.10;99.90;;;18.49;100.00;95380.00;2188425;56;27237;-50
2021/07/17 06:43:14;;;;;;;31.65;23.85;;;18.10;99.90;;;18.59;100.00;95394.00;2188741;56;26166;-50
2021/07/17 06:46:00;;;;;;;30.10;23.67;;;18.10;99.90;;;18.66;100.00;95397.00;2406189;56;26644;-50
2021/07/17 06:48:46;;;;;;;28.58;22.95;;;18.10;99.90;;;18.55;100.00;95398.00;2186476;55;26690;-50
2021/07/17 06:54:31;;;;;;;29.15;23.05;;;18.10;99.90;;;18.71;100.00;95378.00;2460946;53;34095;-50
2021/07/17 06:57:17;;;;;;;32.60;23.30;;;18.10;99.90;;;18.78;100.00;95398.00;2206332;55;26596;-50
2021/07/17 07:00:05;;;;;;;27.33;23.17;;;18.20;99.90;;;18.78;100.00;95398.00;2233559;55;26570;-50
2021/07/17 07:05:48;;;;;;;31.77;24.60;;;18.30;99.90;;;19.07;100.00;95397.00;2482280;53;34573;-51
2021/07/17 07:08:34;;;;;;;30.35;23.40;;;18.40;99.90;;;18.99;100.00;95406.00;2230371;55;26717;-50
2021/07/17 07:11:20;;;;;;;29.90;21.73;;;18.30;99.90;;;18.73;100.00;95411.00;2225358;55;27159;-50
2021/07/17 07:14:07;;;;;;;28.05;21.70;;;18.30;99.90;;;18.87;100.00;95413.00;2452100;55;26881;-50
2021/07/17 07:16:55;;;;;;;29.48;21.92;;;18.30;99.90;;;18.86;100.00;95409.00;2224812;55;27207;-50
2021/07/17 07:19:41;;;;;;;27.05;21.73;;;18.30;99.90;;;18.83;100.00;95411.00;2452762;54;26711;-51
2021/07/17 07:22:28;;;;;;;27.15;21.17;;;18.20;99.90;;;18.64;100.00;95413.00;2225371;55;27184;-51
2021/07/17 07:25:14;;;;;;;27.48;21.58;;;18.40;99.90;;;18.89;100.00;95413.00;2452517;54;26823;-50
2021/07/17 07:28:01;;;;;;;27.75;21.77;;;18.40;99.90;;;19.00;100.00;95400.00;2225583;55;26672;-50
2021/07/17 07:30:47;;;;;;;28.65;21.15;;;18.50;99.90;;;19.07;100.00;95411.00;2452926;54;26582;-50
2021/07/17 07:33:34;;;;;;;27.15;21.15;;;18.60;99.90;;;19.09;100.00;95408.00;2226109;55;26553;-50
2021/07/17 07:36:20;;;;;;;27.05;20.00;;;18.60;99.90;;;19.10;100.00;95413.00;2453743;54;26979;-50
2021/07/17 07:39:06;;;;;;;25.27;20.83;;;18.60;99.90;;;19.13;100.00;95403.00;2456102;54;27252;-50
2021/07/17 07:41:53;;;;;;;26.35;20.08;;;18.50;99.90;;;19.06;100.00;95413.00;2453270;55;27163;-50
2021/07/17 07:44:39;;;;;;;26.55;20.42;;;18.40;99.90;;;19.07;100.00;95412.00;2225969;55;26708;-50
2021/07/17 07:47:25;;;;;;;24.73;21.00;;;18.50;99.90;;;19.15;100.00;95420.00;2453141;55;26958;-50
2021/07/17 07:50:12;;;;;;;28.00;22.65;;;18.40;99.90;;;18.81;100.00;95419.00;2210582;55;26795;-50
2021/07/17 07:52:59;;;;;;;25.90;21.75;;;18.20;99.90;;;18.61;100.00;95419.00;2449263;55;27020;-49
2021/07/17 07:58:43;;;;;;;26.90;22.20;;;18.00;99.90;;;18.58;100.00;95410.00;2356060;55;34548;-50
2021/07/17 08:01:29;;;;;;;28.00;22.55;;;18.00;99.90;;;18.55;100.00;95421.00;2123827;57;26847;-50
2021/07/17 08:04:16;;;;;;;25.73;21.10;;;18.10;99.90;;;18.60;100.00;95417.00;2122841;57;27397;-50
2021/07/17 08:07:03;;;;;;;26.95;21.60;;;18.10;99.90;;;18.57;100.00;95423.00;2329025;57;26553;-50
2021/07/17 08:09:49;;;;;;;30.12;22.55;;;18.10;99.90;;;18.73;100.00;95419.00;2126084;57;26905;-50
2021/07/17 08:12:36;;;;;;;30.25;21.45;;;18.30;99.90;;;18.81;100.00;95421.00;2123983;57;27564;-49
2021/07/17 08:15:22;;;;;;;28.15;22.02;;;18.30;99.90;;;18.85;100.00;95423.00;2331753;57;26801;-50
2021/07/17 08:18:08;;;;;;;32.42;22.58;;;18.40;99.90;;;19.00;100.00;95434.00;2126860;57;26644;-50
2021/07/17 08:20:55;;;;;;;28.45;21.30;;;18.50;99.90;;;19.18;100.00;95431.00;2126862;57;27084;-50
2021/07/17 08:23:44;;;;;;;27.25;20.80;;;18.40;99.90;;;19.01;100.00;95433.00;2125158;57;26925;-50
2021/07/17 08:26:30;;;;;;;29.73;21.70;;;18.30;99.90;;;18.72;100.00;95441.00;2161075;57;27178;-51
2021/07/17 08:29:17;;;;;;;28.40;21.73;;;18.30;99.90;;;18.63;100.00;95435.00;2176371;57;26690;-50
2021/07/17 08:32:04;;;;;;;27.58;22.00;;;18.30;99.90;;;18.77;100.00;95447.00;2176846;57;26801;-50
2021/07/17 08:34:52;;;;;;;24.83;20.85;;;18.20;99.90;;;18.59;100.00;95437.00;2176487;57;27853;-51
2021/07/17 08:37:39;;;;;;;24.77;21.75;;;18.10;99.90;;;18.62;100.00;95433.00;2174659;57;26601;-50
2021/07/17 08:40:26;;;;;;;27.10;22.35;;;18.20;99.90;;;18.69;100.00;95432.00;2174160;57;26678;-50
2021/07/17 08:43:12;;;;;;;26.77;21.62;;;18.10;99.90;;;18.63;100.00;95433.00;2174198;57;26176;-51
2021/07/17 08:46:00;;;;;;;25.90;21.02;;;18.30;99.90;;;18.86;100.00;95432.00;2175888;57;26140;-50
2021/07/17 08:48:49;;;;;;;24.90;20.37;;;18.30;99.90;;;18.83;100.00;95422.00;2162664;57;26716;-50
2021/07/17 08:54:32;;;;;;;23.67;20.08;;;18.70;99.90;;;19.46;100.00;95407.00;2424785;54;34353;-51
2021/07/17 08:57:18;;;;;;;24.40;19.85;;;18.70;99.90;;;19.19;100.00;95414.00;2412302;55;27120;-50
2021/07/17 09:03:10;;;;;;;24.87;20.37;;;18.60;99.90;;;19.31;100.00;95409.00;2468006;54;33544;-50
2021/07/17 09:05:57;;;;;;;23.87;20.70;;;18.70;99.90;;;19.22;100.00;95424.00;2240966;56;26780;-50
2021/07/17 09:08:43;;;;;;;22.95;19.20;;;18.70;99.90;;;19.17;100.00;95418.00;2470591;54;26210;-50
2021/07/17 09:11:39;;;;;;;25.52;19.50;;;18.70;99.90;;;19.21;100.00;95419.00;2262902;54;27044;-50
2021/07/17 09:17:37;;;;;;;25.80;20.50;;;18.50;99.90;;;19.02;100.00;95400.00;2439593;55;33721;-50
2021/07/17 09:20:24;;;;;;;24.90;20.30;;;18.30;99.90;;;18.79;100.00;95411.00;2386798;55;27486;-50
2021/07/17 09:23:10;;;;;;;25.98;19.98;;;18.40;99.90;;;18.97;100.00;95410.00;2186895;55;26678;-50
2021/07/17 09:25:57;;;;;;;24.55;19.35;;;18.50;99.90;;;19.15;100.00;95409.00;2409856;55;26135;-50
2021/07/17 09:28:54;;;;;;;24.12;19.52;;;18.70;99.90;;;19.36;100.00;95406.00;2191934;55;26705;-50
2021/07/17 09:34:52;;;;;;;24.55;19.83;;;18.90;99.90;;;19.43;100.00;95397.00;2486919;52;33563;-50
2021/07/17 09:37:38;;;;;;;26.08;20.30;;;18.90;99.90;;;19.41;100.00;95409.00;2262464;55;26725;-50
2021/07/17 09:40:26;;;;;;;22.50;18.98;;;18.90;99.90;;;19.56;100.00;95405.00;2497392;53;26560;-50
2021/07/17 09:43:24;;;;;;;25.67;20.42;;;19.00;99.90;;;19.55;100.00;95414.00;2263779;54;26923;-50
2021/07/17 09:46:20;;;;;;;33.40;21.95;;;19.00;99.90;;;19.59;100.00;95415.00;2257616;54;27130;-50
2021/07/17 09:49:07;;;;;;;29.15;20.75;;;18.90;99.90;;;19.29;100.00;95411.00;2501552;53;26769;-50
2021/07/17 09:55:12;;;;;;;24.58;20.30;;;18.90;99.90;;;19.43;100.00;95405.00;2459541;53;33515;-50
2021/07/17 09:58:09;;;;;;;28.42;19.98;;;19.00;99.90;;;19.61;100.00;95409.00;2256879;54;26543;-50
2021/07/17 10:04:14;;;;;;;24.25;19.58;;;18.90;99.90;;;19.42;100.00;95395.00;2462305;53;33894;-50
2021/07/17 10:07:09;;;;;;;28.73;21.35;;;18.80;99.90;;;19.22;100.00;95405.00;2433011;55;27239;-50
2021/07/17 10:09:56;;;;;;;31.58;20.58;;;18.80;99.90;;;19.26;100.00;95394.00;2211706;55;27359;-50
2021/07/17 10:12:43;;;;;;;25.08;19.90;;;18.80;99.90;;;19.35;100.00;95399.00;2434661;55;26734;-50
2021/07/17 10:18:42;;;;;;;25.37;19.92;;;19.00;99.90;;;19.54;100.00;95382.00;2437491;55;34224;-50
2021/07/17 10:21:28;;;;;;;22.60;18.98;;;18.90;99.90;;;19.48;100.00;95389.00;2404362;55;27726;-49
2021/07/17 10:24:16;;;;;;;22.98;18.92;;;19.00;99.90;;;19.71;100.00;95392.00;2186818;56;26655;-50
2021/07/17 10:27:05;;;;;;;21.77;17.60;;;19.00;99.90;;;19.36;100.00;95391.00;2404479;55;27410;-49
2021/07/17 10:29:51;;;;;;;21.83;17.58;;;18.80;99.90;;;19.15;100.00;95392.00;2187431;56;27476;-50
2021/07/17 10:32:38;;;;;;;21.80;17.55;;;18.60;99.90;;;18.98;100.00;95391.00;2187124;56;27118;-51
2021/07/17 10:35:24;;;;;;;22.30;16.83;;;18.80;99.90;;;19.36;100.00;95385.00;2187545;56;27186;-50
2021/07/17 10:38:12;;;;;;;20.50;17.02;;;18.90;99.90;;;19.47;100.00;95387.00;2186643;56;26904;-50
2021/07/17 10:43:56;;;;;;;20.90;16.85;;;19.00;99.90;;;19.75;100.00;95384.00;2485424;53;33163;-50
2021/07/17 10:46:44;;;;;;;22.48;18.20;;;19.00;99.90;;;19.61;100.00;95393.00;2225889;54;26825;-50
2021/07/17 10:49:36;;;;;;;21.45;16.75;;;18.90;99.90;;;19.32;100.00;95387.00;2464779;54;26836;-50
2021/07/17 10:52:40;;;;;;;25.12;18.48;;;18.90;99.90;;;19.51;100.00;95384.00;2242601;55;26576;-50
2021/07/17 10:55:29;;;;;;;23.60;17.92;;;18.80;99.90;;;19.40;100.00;95381.00;2242147;55;26792;-50
2021/07/17 11:02:07;;;;;;;20.42;17.95;;;18.80;99.90;;;19.41;100.00;95362.00;2426788;55;34577;-50
2021/07/17 11:05:00;;;;;;;24.35;18.87;;;18.80;99.90;;;19.24;100.00;95376.00;2431379;55;27144;-50
2021/07/17 11:07:52;;;;;;;24.02;19.67;;;18.60;99.90;;;19.13;100.00;95375.00;2439570;54;26130;-50
2021/07/17 11:13:39;;;;;;;29.80;22.33;;;18.60;99.90;;;19.23;100.00;95364.00;2455181;54;34651;-50
2021/07/17 11:16:44;;;;;;;24.50;20.48;;;18.50;99.90;;;18.99;100.00;95366.00;2411359;55;27183;-50
2021/07/17 11:19:31;;;;;;;26.25;21.00;;;18.60;99.90;;;19.08;100.00;95377.00;2210243;55;27265;-51
2021/07/17 11:22:17;;;;;;;26.70;19.52;;;18.60;99.90;;;19.01;100.00;95369.00;2213215;55;26775;-50
2021/07/17 11:28:01;;;;;;;28.48;22.40;;;18.40;99.90;;;18.96;100.00;95369.00;2423400;54;33977;-50
2021/07/17 11:30:48;;;;;;;24.90;19.75;;;18.50;99.90;;;18.92;100.00;95381.00;2175554;56;26668;-51
2021/07/17 11:33:34;;;;;;;24.75;19.08;;;18.40;99.90;;;18.83;100.00;95382.00;2405277;55;26995;-51
2021/07/17 11:39:25;;;;;;;22.62;17.77;;;18.30;99.90;;;18.92;100.00;95373.00;2465965;54;33847;-50
2021/07/17 11:42:13;;;;;;;23.05;18.30;;;18.30;99.90;;;18.76;100.00;95384.00;2464254;54;26594;-50
2021/07/17 11:45:00;;;;;;;24.65;18.83;;;18.20;99.90;;;18.69;100.00;95384.00;2236326;56;26867;-50
2021/07/17 11:47:46;;;;;;;22.10;18.75;;;18.30;99.90;;;18.77;100.00;95378.00;2236650;54;26594;-51
2021/07/17 11:50:32;;;;;;;22.80;19.35;;;18.30;99.90;;;18.72;100.00;95381.00;2436156;54;26607;-50
2021/07/17 11:53:20;;;;;;;25.58;19.52;;;18.20;99.90;;;18.55;100.00;95376.00;2212632;55;26618;-51
2021/07/17 11:56:06;;;;;;;22.23;19.27;;;18.20;99.90;;;18.71;100.00;95382.00;2467221;54;26737;-50
2021/07/17 11:59:09;;;;;;;23.02;18.73;;;18.30;99.90;;;18.77;100.00;95378.00;2238157;54;27193;-50
2021/07/17 12:02:08;;;;;;;24.80;18.75;;;18.30;99.90;;;18.83;100.00;95379.00;2238372;54;26760;-50
2021/07/17 12:04:57;;;;;;;21.85;18.45;;;18.40;99.90;;;18.99;100.00;95382.00;2466077;54;27267;-50
2021/07/17 12:07:46;;;;;;;21.77;16.87;;;18.30;99.90;;;18.81;100.00;95377.00;2238415;55;27367;-51
2021/07/17 12:10:33;;;;;;;19.75;16.35;;;18.40;99.90;;;18.87;100.00;95373.00;2467426;54;26111;-50
2021/07/17 12:13:22;;;;;;;23.95;17.23;;;18.30;99.90;;;18.76;100.00;95374.00;2237618;55;27026;-50
2021/07/17 12:19:19;;;;;;;24.00;17.23;;;18.20;99.90;;;18.77;100.00;95357.00;2506572;53;33976;-50
2021/07/17 12:22:06;;;;;;;19.70;16.30;;;18.10;99.90;;;18.69;100.00;95370.00;2414544;54;27327;-51
2021/07/17 12:28:18;;;;;;;21.17;17.00;;;18.10;99.90;;;18.93;100.00;95354.00;2450571;55;34175;-50
2021/07/17 12:31:10;;;;;;;21.35;17.10;;;18.30;99.90;;;18.76;100.00;95360.00;2236237;56;26838;-50
2021/07/17 12:33:57;;;;;;;22.27;16.62;;;18.30;99.90;;;18.80;100.00;95365.00;2462735;55;27230;-51
2021/07/17 12:36:43;;;;;;;22.52;17.75;;;18.30;99.90;;;18.65;100.00;95361.00;2217351;55;26951;-50
2021/07/17 12:39:30;;;;;;;23.67;17.50;;;18.30;99.90;;;18.80;100.00;95369.00;2214829;55;26755;-50
2021/07/17 12:42:16;;;;;;;23.02;17.52;;;18.40;99.90;;;18.86;100.00;95361.00;2417417;55;26624;-50
2021/07/17 12:45:03;;;;;;;23.35;17.35;;;18.50;99.90;;;19.05;100.00;95359.00;2215801;55;26793;-50
2021/07/17 12:47:52;;;;;;;22.75;17.62;;;18.60;99.90;;;19.21;100.00;95361.00;2430006;55;26677;-50
2021/07/17 12:50:38;;;;;;;23.92;18.12;;;18.60;99.90;;;19.07;100.00;95354.00;2211266;56;26721;-50
2021/07/17 12:53:25;;;;;;;20.20;17.08;;;18.60;99.90;;;18.99;100.00;95358.00;2434040;55;27563;-50
2021/07/17 12:56:14;;;;;;;25.17;18.48;;;18.60;99.90;;;19.20;100.00;95359.00;2207455;55;26610;-50
2021/07/17 12:59:02;;;;;;;22.83;18.73;;;18.50;99.90;;;19.05;100.00;95359.00;2440131;54;26682;-50
2021/07/17 13:01:51;;;;;;;25.33;18.48;;;18.50;99.90;;;19.04;100.00;95355.00;2215993;55;26170;-51
2021/07/17 13:04:46;;;;;;;23.80;19.33;;;18.60;99.90;;;19.24;100.00;95358.00;2468889;55;26921;-50
2021/07/17 13:07:35;;;;;;;22.90;17.80;;;18.60;99.90;;;19.19;100.00;95353.00;2469090;55;27129;-51
2021/07/17 13:13:34;;;;;;;26.33;18.65;;;18.90;99.90;;;19.57;100.00;95329.00;2474121;53;33499;-50
2021/07/17 13:16:29;;;;;;;21.55;18.00;;;19.20;99.90;;;19.75;100.00;95344.00;2434765;55;26739;-49
2021/07/17 13:19:16;;;;;;;22.37;17.92;;;19.30;99.90;;;20.00;100.00;95339.00;2211882;55;27543;-50
2021/07/17 13:22:05;;;;;;;27.37;19.02;;;19.50;99.90;;;20.05;100.00;95335.00;2465021;54;27101;-50
2021/07/17 13:24:52;;;;;;;21.67;17.95;;;19.50;99.90;;;20.11;100.00;95334.00;2234058;55;26181;-50
2021/07/17 13:27:38;;;;;;;21.05;17.60;;;19.30;99.90;;;19.68;100.00;95327.00;2233347;55;26822;-51
2021/07/17 13:30:32;;;;;;;21.30;18.02;;;19.20;99.90;;;19.63;100.00;95332.00;2472309;54;26730;-50